createdAt,value
2023-04-27T00:00:29.287Z,920.00
2023-04-27T00:01:29.252Z,920.00
2023-04-27T00:02:29.339Z,921.00
2023-04-27T00:03:29.359Z,912.00
2023-04-27T00:04:29.489Z,908.00
2023-04-27T00:05:29.305Z,912.00
2023-04-27T00:06:29.169Z,927.00
2023-04-27T00:07:29.161Z,922.00
2023-04-27T00:08:29.156Z,901.00
2023-04-27T00:09:29.178Z,912.00
2023-04-27T00:10:29.168Z,921.00
2023-04-27T00:11:29.204Z,914.00
2023-04-27T00:12:29.253Z,914.00
2023-04-27T00:13:29.295Z,901.00
2023-04-27T00:14:29.294Z,902.00
2023-04-27T00:15:29.296Z,903.00
2023-04-27T00:16:29.336Z,902.00
2023-04-27T00:17:29.301Z,911.00
2023-04-27T00:18:29.250Z,917.00
2023-04-27T00:19:29.244Z,909.00
2023-04-27T00:20:29.226Z,904.00
2023-04-27T00:21:29.220Z,914.00
2023-04-27T00:22:29.210Z,907.00
2023-04-27T00:23:29.200Z,902.00
2023-04-27T00:24:29.193Z,908.00
2023-04-27T00:25:29.238Z,904.00
2023-04-27T00:26:29.224Z,904.00
2023-04-27T00:27:29.235Z,905.00
2023-04-27T00:28:29.197Z,908.00
2023-04-27T00:29:29.195Z,900.00
2023-04-27T00:30:29.181Z,894.00
2023-04-27T00:31:29.228Z,895.00
2023-04-27T00:32:29.183Z,886.00
2023-04-27T00:33:29.148Z,881.00
2023-04-27T00:34:29.170Z,883.00
2023-04-27T00:35:29.163Z,904.00
2023-04-27T00:36:29.208Z,887.00
2023-04-27T00:37:29.263Z,894.00
2023-04-27T00:38:29.329Z,880.00
2023-04-27T00:39:29.387Z,885.00
2023-04-27T00:40:29.438Z,882.00
2023-04-27T00:41:29.490Z,879.00
2023-04-27T00:42:29.562Z,879.00
2023-04-27T00:43:29.611Z,869.00
2023-04-27T00:44:29.659Z,878.00
2023-04-27T00:45:29.726Z,890.00
2023-04-27T00:46:29.810Z,876.00
2023-04-27T00:47:29.874Z,874.00
2023-04-27T00:48:29.880Z,882.00
2023-04-27T00:49:29.936Z,871.00
2023-04-27T00:50:30.010Z,879.00
2023-04-27T00:51:30.050Z,874.00
2023-04-27T00:52:30.112Z,866.00
2023-04-27T00:53:30.160Z,875.00
2023-04-27T00:54:30.231Z,868.00
2023-04-27T00:55:30.296Z,876.00
2023-04-27T00:56:30.336Z,877.00
2023-04-27T00:57:30.404Z,862.00
2023-04-27T00:58:30.462Z,876.00
2023-04-27T00:59:30.504Z,876.00
2023-04-27T01:00:30.585Z,875.00
2023-04-27T01:01:30.637Z,873.00
2023-04-27T01:02:30.858Z,871.00
2023-04-27T01:03:30.785Z,853.00
2023-04-27T01:04:30.952Z,863.00
2023-04-27T01:05:32.597Z,852.00
2023-04-27T01:06:30.894Z,856.00
2023-04-27T01:07:30.966Z,869.00
2023-04-27T01:08:30.998Z,859.00
2023-04-27T01:09:31.064Z,850.00
2023-04-27T01:10:31.125Z,843.00
2023-04-27T01:11:31.172Z,851.00
2023-04-27T01:12:31.237Z,854.00
2023-04-27T01:13:31.284Z,868.00
2023-04-27T01:14:31.346Z,838.00
2023-04-27T01:15:31.384Z,850.00
2023-04-27T01:16:31.397Z,851.00
2023-04-27T01:17:31.393Z,852.00
2023-04-27T01:18:31.350Z,852.00
2023-04-27T01:19:31.341Z,857.00
2023-04-27T01:20:31.358Z,848.00
2023-04-27T01:21:31.327Z,851.00
2023-04-27T01:22:31.324Z,851.00
2023-04-27T01:23:31.322Z,853.00
2023-04-27T01:24:31.301Z,854.00
2023-04-27T01:25:31.292Z,851.00
2023-04-27T01:26:31.288Z,847.00
2023-04-27T01:27:31.267Z,836.00
2023-04-27T01:28:31.282Z,851.00
2023-04-27T01:29:31.248Z,861.00
2023-04-27T01:30:31.246Z,843.00
2023-04-27T01:31:31.283Z,833.00
2023-04-27T01:32:31.293Z,855.00
2023-04-27T01:33:31.284Z,840.00
2023-04-27T01:34:31.289Z,842.00
2023-04-27T01:35:31.275Z,844.00
2023-04-27T01:36:31.246Z,843.00
2023-04-27T01:37:31.246Z,847.00
2023-04-27T01:38:31.223Z,862.00
2023-04-27T01:39:31.216Z,847.00
2023-04-27T01:40:31.227Z,858.00
2023-04-27T01:41:31.192Z,843.00
2023-04-27T01:42:31.181Z,842.00
2023-04-27T01:43:31.190Z,839.00
2023-04-27T01:44:31.197Z,848.00
2023-04-27T01:45:31.275Z,845.00
2023-04-27T01:46:31.367Z,836.00
2023-04-27T01:47:31.393Z,839.00
2023-04-27T01:48:31.371Z,835.00
2023-04-27T01:49:31.429Z,831.00
2023-04-27T01:50:31.457Z,830.00
2023-04-27T01:51:31.483Z,822.00
2023-04-27T01:52:31.516Z,836.00
2023-04-27T01:53:31.563Z,843.00
2023-04-27T01:54:31.610Z,827.00
2023-04-27T01:55:31.669Z,842.00
2023-04-27T01:56:31.731Z,841.00
2023-04-27T01:57:31.778Z,820.00
2023-04-27T01:58:31.844Z,815.00
2023-04-27T01:59:31.904Z,832.00
2023-04-27T02:00:31.968Z,824.00
2023-04-27T02:01:32.055Z,848.00
2023-04-27T02:02:32.148Z,829.00
2023-04-27T02:03:32.276Z,832.00
2023-04-27T02:04:32.229Z,824.00
2023-04-27T02:05:32.237Z,818.00
2023-04-27T02:06:32.275Z,806.00
2023-04-27T02:07:32.324Z,809.00
2023-04-27T02:08:32.360Z,811.00
2023-04-27T02:09:32.363Z,822.00
2023-04-27T02:10:32.377Z,801.00
2023-04-27T02:11:32.397Z,804.00
2023-04-27T02:12:32.428Z,824.00
2023-04-27T02:13:32.475Z,815.00
2023-04-27T02:14:32.529Z,814.00
2023-04-27T02:15:32.603Z,800.00
2023-04-27T02:16:32.671Z,800.00
2023-04-27T02:17:32.706Z,818.00
2023-04-27T02:18:32.716Z,809.00
2023-04-27T02:19:32.747Z,820.00
2023-04-27T02:20:32.812Z,808.00
2023-04-27T02:21:32.835Z,814.00
2023-04-27T02:22:32.889Z,804.00
2023-04-27T02:23:32.958Z,803.00
2023-04-27T02:24:32.965Z,796.00
2023-04-27T02:25:33.068Z,808.00
2023-04-27T02:26:33.086Z,811.00
2023-04-27T02:27:33.190Z,798.00
2023-04-27T02:28:33.242Z,804.00
2023-04-27T02:29:33.239Z,797.00
2023-04-27T02:30:33.274Z,811.00
2023-04-27T02:31:33.347Z,789.00
2023-04-27T02:32:33.399Z,793.00
2023-04-27T02:33:33.425Z,795.00
2023-04-27T02:34:33.474Z,792.00
2023-04-27T02:35:33.499Z,799.00
2023-04-27T02:36:33.559Z,799.00
2023-04-27T02:37:33.505Z,795.00
2023-04-27T02:38:33.506Z,794.00
2023-04-27T02:39:33.507Z,776.00
2023-04-27T02:40:33.534Z,791.00
2023-04-27T02:41:33.551Z,798.00
2023-04-27T02:42:33.581Z,784.00
2023-04-27T02:43:33.584Z,784.00
2023-04-27T02:44:33.605Z,781.00
2023-04-27T02:45:33.600Z,785.00
2023-04-27T02:46:33.612Z,783.00
2023-04-27T02:47:33.622Z,792.00
2023-04-27T02:48:33.591Z,795.00
2023-04-27T02:49:33.602Z,784.00
2023-04-27T02:50:33.660Z,787.00
2023-04-27T02:51:33.674Z,781.00
2023-04-27T02:52:33.736Z,783.00
2023-04-27T02:53:33.769Z,777.00
2023-04-27T02:54:33.835Z,776.00
2023-04-27T02:55:33.869Z,777.00
2023-04-27T02:56:33.831Z,778.00
2023-04-27T02:57:33.815Z,780.00
2023-04-27T02:58:33.806Z,775.00
2023-04-27T02:59:33.804Z,786.00
2023-04-27T03:00:33.809Z,781.00
2023-04-27T03:01:33.817Z,793.00
2023-04-27T03:02:33.873Z,776.00
2023-04-27T03:03:33.909Z,773.00
2023-04-27T03:04:33.784Z,784.00
2023-04-27T03:05:33.745Z,781.00
2023-04-27T03:06:33.778Z,776.00
2023-04-27T03:07:33.791Z,776.00
2023-04-27T03:08:33.846Z,782.00
2023-04-27T03:09:33.872Z,786.00
2023-04-27T03:10:33.938Z,775.00
2023-04-27T03:11:35.307Z,784.00
2023-04-27T03:12:33.999Z,790.00
2023-04-27T03:13:34.032Z,774.00
2023-04-27T03:14:34.050Z,767.00
2023-04-27T03:15:34.050Z,773.00
2023-04-27T03:16:34.112Z,771.00
2023-04-27T03:17:34.111Z,775.00
2023-04-27T03:18:34.122Z,779.00
2023-04-27T03:19:34.145Z,764.00
2023-04-27T03:20:34.171Z,772.00
2023-04-27T03:21:34.196Z,763.00
2023-04-27T03:22:34.216Z,760.00
2023-04-27T03:23:34.226Z,760.00
2023-04-27T03:24:34.231Z,744.00
2023-04-27T03:25:34.238Z,733.00
2023-04-27T03:26:34.258Z,761.00
2023-04-27T03:27:34.290Z,763.00
2023-04-27T03:28:34.334Z,756.00
2023-04-27T03:29:34.506Z,771.00
2023-04-27T03:30:34.414Z,758.00
2023-04-27T03:31:34.477Z,769.00
2023-04-27T03:32:34.489Z,748.00
2023-04-27T03:33:34.470Z,754.00
2023-04-27T03:34:34.483Z,756.00
2023-04-27T03:35:34.531Z,754.00
2023-04-27T03:36:34.543Z,754.00
2023-04-27T03:37:34.558Z,741.00
2023-04-27T03:38:34.593Z,750.00
2023-04-27T03:39:34.633Z,742.00
2023-04-27T03:40:34.669Z,741.00
2023-04-27T03:41:34.687Z,750.00
2023-04-27T03:42:34.687Z,740.00
2023-04-27T03:43:34.696Z,742.00
2023-04-27T03:44:34.708Z,743.00
2023-04-27T03:45:34.745Z,736.00
2023-04-27T03:46:35.054Z,739.00
2023-04-27T03:47:34.878Z,733.00
2023-04-27T03:48:34.872Z,736.00
2023-04-27T03:49:34.917Z,743.00
2023-04-27T03:50:34.991Z,748.00
2023-04-27T03:51:35.013Z,728.00
2023-04-27T03:52:35.027Z,743.00
2023-04-27T03:53:35.023Z,729.00
2023-04-27T03:54:35.076Z,742.00
2023-04-27T03:55:35.124Z,733.00
2023-04-27T03:56:35.130Z,732.00
2023-04-27T03:57:35.138Z,729.00
2023-04-27T03:58:35.148Z,735.00
2023-04-27T03:59:35.161Z,726.00
2023-04-27T04:00:35.165Z,714.00
2023-04-27T04:01:35.737Z,722.00
2023-04-27T04:02:35.220Z,733.00
2023-04-27T04:03:35.357Z,740.00
2023-04-27T04:04:35.377Z,740.00
2023-04-27T04:05:35.207Z,741.00
2023-04-27T04:06:35.199Z,732.00
2023-04-27T04:07:35.169Z,725.00
2023-04-27T04:08:35.176Z,728.00
2023-04-27T04:09:35.170Z,752.00
2023-04-27T04:10:35.178Z,736.00
2023-04-27T04:11:35.164Z,733.00
2023-04-27T04:12:35.164Z,733.00
2023-04-27T04:13:35.176Z,728.00
2023-04-27T04:14:35.153Z,726.00
2023-04-27T04:15:35.182Z,725.00
2023-04-27T04:16:35.177Z,745.00
2023-04-27T04:17:35.236Z,728.00
2023-04-27T04:18:35.241Z,730.00
2023-04-27T04:19:35.281Z,736.00
2023-04-27T04:20:35.315Z,725.00
2023-04-27T04:21:35.325Z,724.00
2023-04-27T04:22:35.352Z,735.00
2023-04-27T04:23:35.360Z,736.00
2023-04-27T04:24:35.401Z,745.00
2023-04-27T04:25:35.415Z,722.00
2023-04-27T04:26:35.454Z,725.00
2023-04-27T04:27:35.439Z,722.00
2023-04-27T04:28:35.416Z,723.00
2023-04-27T04:29:35.449Z,733.00
2023-04-27T04:30:35.440Z,733.00
2023-04-27T04:31:35.437Z,734.00
2023-04-27T04:32:35.445Z,735.00
2023-04-27T04:33:35.492Z,734.00
2023-04-27T04:34:35.380Z,716.00
2023-04-27T04:35:35.358Z,726.00
2023-04-27T04:36:35.348Z,717.00
2023-04-27T04:37:35.378Z,718.00
2023-04-27T04:38:35.325Z,723.00
2023-04-27T04:39:35.331Z,723.00
2023-04-27T04:40:35.317Z,733.00
2023-04-27T04:41:35.294Z,713.00
2023-04-27T04:42:35.293Z,728.00
2023-04-27T04:43:35.296Z,713.00
2023-04-27T04:44:35.276Z,720.00
2023-04-27T04:45:35.270Z,725.00
2023-04-27T04:46:35.310Z,714.00
2023-04-27T04:47:35.320Z,713.00
2023-04-27T04:48:35.237Z,712.00
2023-04-27T04:49:35.233Z,708.00
2023-04-27T04:50:35.249Z,702.00
2023-04-27T04:51:35.238Z,711.00
2023-04-27T04:52:35.244Z,700.00
2023-04-27T04:53:35.247Z,714.00
2023-04-27T04:54:35.222Z,711.00
2023-04-27T04:55:35.237Z,727.00
2023-04-27T04:56:35.249Z,708.00
2023-04-27T04:57:35.245Z,708.00
2023-04-27T04:58:35.314Z,707.00
2023-04-27T04:59:35.242Z,708.00
2023-04-27T05:00:35.227Z,705.00
2023-04-27T05:01:35.253Z,706.00
2023-04-27T05:02:35.350Z,705.00
2023-04-27T05:03:35.385Z,713.00
2023-04-27T05:04:35.422Z,707.00
2023-04-27T05:05:35.199Z,711.00
2023-04-27T05:06:35.187Z,715.00
2023-04-27T05:07:35.162Z,718.00
2023-04-27T05:08:35.142Z,702.00
2023-04-27T05:09:35.152Z,708.00
2023-04-27T05:10:35.138Z,705.00
2023-04-27T05:11:35.144Z,691.00
2023-04-27T05:12:35.128Z,707.00
2023-04-27T05:13:35.112Z,708.00
2023-04-27T05:14:35.119Z,715.00
2023-04-27T05:15:35.100Z,705.00
2023-04-27T05:16:35.222Z,711.00
2023-04-27T05:17:35.130Z,703.00
2023-04-27T05:18:35.074Z,700.00
2023-04-27T05:19:35.061Z,704.00
2023-04-27T05:20:35.205Z,713.00
2023-04-27T05:21:35.087Z,701.00
2023-04-27T05:22:35.091Z,702.00
2023-04-27T05:23:35.067Z,703.00
2023-04-27T05:24:35.064Z,707.00
2023-04-27T05:25:35.077Z,707.00
2023-04-27T05:26:35.052Z,692.00
2023-04-27T05:27:35.065Z,709.00
2023-04-27T05:28:35.035Z,716.00
2023-04-27T05:29:35.034Z,711.00
2023-04-27T05:30:35.028Z,700.00
2023-04-27T05:31:35.091Z,720.00
2023-04-27T05:32:35.044Z,707.00
2023-04-27T05:33:35.042Z,704.00
2023-04-27T05:34:34.996Z,700.00
2023-04-27T05:35:35.118Z,698.00
2023-04-27T05:36:35.083Z,706.00
2023-04-27T05:37:34.985Z,753.00
2023-04-27T05:38:35.006Z,760.00
2023-04-27T05:39:34.979Z,772.00
2023-04-27T05:40:35.095Z,785.00
2023-04-27T05:41:34.939Z,809.00
2023-04-27T05:42:34.929Z,838.00
2023-04-27T05:43:34.928Z,854.00
2023-04-27T05:44:34.977Z,901.00
2023-04-27T05:45:35.088Z,944.00
2023-04-27T05:46:37.922Z,968.00
2023-04-27T05:47:35.123Z,1015.00
2023-04-27T05:48:35.110Z,1099.00
2023-04-27T05:49:35.081Z,1119.00
2023-04-27T05:50:35.094Z,1138.00
2023-04-27T05:51:35.067Z,1048.00
2023-04-27T05:52:36.384Z,992.00
2023-04-27T05:53:35.008Z,881.00
2023-04-27T05:54:35.016Z,750.00
2023-04-27T05:55:35.596Z,750.00
2023-04-27T05:56:35.008Z,771.00
2023-04-27T05:57:35.009Z,714.00
2023-04-27T05:58:35.062Z,804.00
2023-04-27T05:59:35.010Z,794.00
2023-04-27T06:00:35.012Z,845.00
2023-04-27T06:01:35.001Z,876.00
2023-04-27T06:02:35.135Z,907.00
2023-04-27T06:03:35.190Z,947.00
2023-04-27T06:04:35.023Z,1001.00
2023-04-27T06:05:35.126Z,1053.00
2023-04-27T06:06:34.975Z,1089.00
2023-04-27T06:07:34.970Z,1093.00
2023-04-27T06:08:34.946Z,1114.00
2023-04-27T06:09:34.937Z,1159.00
2023-04-27T06:10:34.959Z,1248.00
2023-04-27T06:11:34.937Z,1398.00
2023-04-27T06:12:34.917Z,1445.00
2023-04-27T06:13:34.913Z,1500.00
2023-04-27T06:14:34.935Z,1541.00
2023-04-27T06:15:34.912Z,1590.00
2023-04-27T06:16:35.241Z,1593.00
2023-04-27T06:17:34.925Z,1609.00
2023-04-27T06:18:34.949Z,1644.00
2023-04-27T06:19:34.901Z,1714.00
2023-04-27T06:20:34.990Z,1820.00
2023-04-27T06:21:34.820Z,1859.00
2023-04-27T06:22:34.837Z,1897.00
2023-04-27T06:23:34.796Z,1939.00
2023-04-27T06:24:34.803Z,1971.00
2023-04-27T06:25:34.829Z,2001.00
2023-04-27T06:26:34.909Z,2038.00
2023-04-27T06:27:34.766Z,2060.00
2023-04-27T06:28:34.771Z,2086.00
2023-04-27T06:29:34.745Z,2109.00
2023-04-27T06:30:35.005Z,2158.00
2023-04-27T06:31:34.782Z,2167.00
2023-04-27T06:32:34.712Z,2204.00
2023-04-27T06:33:34.719Z,2246.00
2023-04-27T06:34:34.676Z,2273.00
2023-04-27T06:35:34.677Z,2290.00
2023-04-27T06:36:34.647Z,2292.00
2023-04-27T06:37:34.641Z,2298.00
2023-04-27T06:38:34.608Z,2320.00
2023-04-27T06:39:34.599Z,2346.00
2023-04-27T06:40:34.658Z,2408.00
2023-04-27T06:41:34.561Z,2439.00
2023-04-27T06:42:34.537Z,2455.00
2023-04-27T06:43:34.519Z,2317.00
2023-04-27T06:44:34.514Z,2216.00
2023-04-27T06:45:34.517Z,2156.00
2023-04-27T06:46:34.599Z,2098.00
2023-04-27T06:47:34.499Z,2094.00
2023-04-27T06:48:34.490Z,2104.00
2023-04-27T06:49:34.473Z,2091.00
2023-04-27T06:50:34.477Z,2092.00
2023-04-27T06:51:34.445Z,2121.00
2023-04-27T06:52:34.446Z,2114.00
2023-04-27T06:53:34.506Z,2218.00
2023-04-27T06:54:34.438Z,2278.00
2023-04-27T06:55:34.405Z,2263.00
2023-04-27T06:56:34.436Z,2277.00
2023-04-27T06:57:34.458Z,2298.00
2023-04-27T06:58:34.369Z,2298.00
2023-04-27T06:59:34.345Z,2299.00
2023-04-27T07:00:34.355Z,2310.00
2023-04-27T07:01:34.363Z,2313.00
2023-04-27T07:02:34.430Z,2326.00
2023-04-27T07:03:34.431Z,2336.00
2023-04-27T07:04:34.320Z,2354.00
2023-04-27T07:05:34.261Z,2365.00
2023-04-27T07:06:34.321Z,2366.00
2023-04-27T07:07:34.424Z,2398.00
2023-04-27T07:08:34.245Z,2375.00
2023-04-27T07:09:34.395Z,2390.00
2023-04-27T07:10:34.205Z,2412.00
2023-04-27T07:11:34.187Z,2425.00
2023-04-27T07:12:34.184Z,2427.00
2023-04-27T07:13:34.162Z,2443.00
2023-04-27T07:14:34.123Z,2444.00
2023-04-27T07:15:34.116Z,2450.00
2023-04-27T07:16:34.112Z,2460.00
2023-04-27T07:17:34.160Z,2480.00
2023-04-27T07:18:34.076Z,2494.00
2023-04-27T07:19:34.090Z,2447.00
2023-04-27T07:20:34.058Z,2457.00
2023-04-27T07:21:34.042Z,2475.00
2023-04-27T07:22:34.021Z,2511.00
2023-04-27T07:23:34.004Z,2546.00
2023-04-27T07:24:34.001Z,2571.00
2023-04-27T07:25:34.072Z,2584.00
2023-04-27T07:26:34.097Z,2583.00
2023-04-27T07:27:33.979Z,2581.00
2023-04-27T07:28:33.946Z,2599.00
2023-04-27T07:29:34.300Z,2604.00
2023-04-27T07:30:33.895Z,2691.00
2023-04-27T07:31:33.946Z,2751.00
2023-04-27T07:32:33.949Z,2779.00
2023-04-27T07:33:33.910Z,2853.00
2023-04-27T07:34:49.107Z,2827.00
2023-04-27T07:35:34.935Z,2788.00
2023-04-27T07:36:33.914Z,2723.00
2023-04-27T07:37:33.890Z,2692.00
2023-04-27T07:38:33.876Z,2670.00
2023-04-27T07:39:33.858Z,2566.00
2023-04-27T07:40:33.885Z,2343.00
2023-04-27T07:41:33.845Z,2127.00
2023-04-27T07:42:33.806Z,1995.00
2023-04-27T07:43:33.858Z,1843.00
2023-04-27T07:44:33.771Z,1723.00
2023-04-27T07:45:33.894Z,1624.00
2023-04-27T07:46:33.808Z,1560.00
2023-04-27T07:47:33.732Z,1482.00
2023-04-27T07:48:33.765Z,1403.00
2023-04-27T07:49:33.694Z,1311.00
2023-04-27T07:50:33.682Z,1226.00
2023-04-27T07:51:33.670Z,1059.00
2023-04-27T07:52:33.659Z,1050.00
2023-04-27T07:53:33.628Z,891.00
2023-04-27T07:54:33.615Z,879.00
2023-04-27T07:55:33.605Z,916.00
2023-04-27T07:56:33.679Z,899.00
2023-04-27T07:57:33.620Z,847.00
2023-04-27T07:58:33.607Z,784.00
2023-04-27T07:59:33.587Z,653.00
2023-04-27T08:00:33.545Z,644.00
2023-04-27T08:01:33.544Z,651.00
2023-04-27T08:02:33.666Z,606.00
2023-04-27T08:03:33.697Z,615.00
2023-04-27T08:04:33.861Z,600.00
2023-04-27T08:05:33.673Z,551.00
2023-04-27T08:06:34.189Z,575.00
2023-04-27T08:07:35.906Z,579.00
2023-04-27T08:08:33.472Z,538.00
2023-04-27T08:09:33.470Z,528.00
2023-04-27T08:10:33.465Z,512.00
2023-04-27T08:11:33.468Z,459.00
2023-04-27T08:12:33.442Z,440.00
2023-04-27T08:13:33.447Z,400.00
2023-04-27T08:14:33.453Z,400.00
2023-04-27T08:15:33.445Z,400.00
2023-04-27T08:16:33.510Z,400.00
2023-04-27T08:17:33.483Z,400.00
2023-04-27T08:18:33.421Z,400.00
2023-04-27T08:19:33.426Z,400.00
2023-04-27T08:20:33.422Z,400.00
2023-04-27T08:21:33.393Z,400.00
2023-04-27T08:22:33.440Z,400.00
2023-04-27T08:23:33.382Z,400.00
2023-04-27T08:24:33.398Z,400.00
2023-04-27T08:25:33.435Z,400.00
2023-04-27T08:26:33.488Z,425.00
2023-04-27T08:27:33.518Z,446.00
2023-04-27T08:28:33.578Z,473.00
2023-04-27T08:29:33.852Z,499.00
2023-04-27T08:30:33.690Z,501.00
2023-04-27T08:31:33.813Z,514.00
2023-04-27T08:32:33.788Z,601.00
2023-04-27T08:33:33.892Z,661.00
2023-04-27T08:34:33.854Z,897.00
2023-04-27T08:35:33.887Z,1059.00
2023-04-27T08:36:34.009Z,983.00
2023-04-27T08:37:34.022Z,1066.00
2023-04-27T08:38:34.084Z,1056.00
2023-04-27T08:39:34.153Z,1132.00
2023-04-27T08:40:34.226Z,1087.00
2023-04-27T08:41:34.284Z,984.00
2023-04-27T08:42:34.358Z,947.00
2023-04-27T08:43:34.467Z,925.00
2023-04-27T08:44:34.464Z,798.00
2023-04-27T08:45:34.531Z,638.00
2023-04-27T08:46:34.579Z,815.00
2023-04-27T08:47:42.863Z,1008.00
2023-04-27T08:48:35.560Z,1009.00
2023-04-27T08:49:34.647Z,1021.00
2023-04-27T08:50:34.538Z,1054.00
2023-04-27T08:51:34.549Z,1122.00
2023-04-27T08:52:34.517Z,1263.00
2023-04-27T08:53:34.516Z,1094.00
2023-04-27T08:54:34.501Z,1005.00
2023-04-27T08:55:34.521Z,889.00
2023-04-27T08:56:34.524Z,825.00
2023-04-27T08:57:34.617Z,718.00
2023-04-27T08:58:34.640Z,661.00
2023-04-27T08:59:34.706Z,628.00
2023-04-27T09:00:34.768Z,621.00
2023-04-27T09:01:34.903Z,613.00
2023-04-27T09:02:35.067Z,598.00
2023-04-27T09:03:34.977Z,605.00
2023-04-27T09:04:34.863Z,626.00
2023-04-27T09:05:34.781Z,648.00
2023-04-27T09:06:34.874Z,732.00
2023-04-27T09:07:34.830Z,787.00
2023-04-27T09:08:34.795Z,906.00
2023-04-27T09:09:34.808Z,989.00
2023-04-27T09:10:34.828Z,1096.00
2023-04-27T09:11:35.217Z,1159.00
2023-04-27T09:12:34.899Z,1245.00
2023-04-27T09:13:34.900Z,1300.00
2023-04-27T09:14:34.970Z,1385.00
2023-04-27T09:15:34.964Z,1429.00
2023-04-27T09:16:35.069Z,1483.00
2023-04-27T09:17:35.053Z,1519.00
2023-04-27T09:18:35.082Z,1554.00
2023-04-27T09:19:35.174Z,1574.00
2023-04-27T09:20:35.142Z,1585.00
2023-04-27T09:21:35.173Z,1647.00
2023-04-27T09:22:35.173Z,1645.00
2023-04-27T09:23:35.194Z,1680.00
2023-04-27T09:24:35.202Z,1724.00
2023-04-27T09:25:36.181Z,1731.00
2023-04-27T09:26:35.674Z,1867.00
2023-04-27T09:27:35.259Z,1809.00
2023-04-27T09:28:35.386Z,1863.00
2023-04-27T09:29:35.369Z,1931.00
2023-04-27T09:30:35.270Z,1932.00
2023-04-27T09:31:35.326Z,1935.00
2023-04-27T09:32:35.299Z,1970.00
2023-04-27T09:33:35.244Z,1992.00
2023-04-27T09:34:35.237Z,1987.00
2023-04-27T09:35:35.240Z,2027.00
2023-04-27T09:36:35.255Z,2028.00
2023-04-27T09:37:35.210Z,1889.00
2023-04-27T09:38:35.183Z,1866.00
2023-04-27T09:39:35.260Z,1823.00
2023-04-27T09:40:35.165Z,1875.00
2023-04-27T09:41:35.287Z,1766.00
2023-04-27T09:42:35.149Z,1819.00
2023-04-27T09:43:35.137Z,1893.00
2023-04-27T09:44:35.122Z,2008.00
2023-04-27T09:45:35.194Z,1887.00
2023-04-27T09:46:35.111Z,2083.00
2023-04-27T09:47:35.175Z,2129.00
2023-04-27T09:48:35.091Z,2128.00
2023-04-27T09:49:35.150Z,2152.00
2023-04-27T09:50:36.727Z,2122.00
2023-04-27T09:51:35.031Z,2115.00
2023-04-27T09:52:35.016Z,2127.00
2023-04-27T09:53:35.022Z,2078.00
2023-04-27T09:54:34.976Z,2097.00
2023-04-27T09:55:35.055Z,2151.00
2023-04-27T09:56:34.949Z,2131.00
2023-04-27T09:57:34.942Z,2118.00
2023-04-27T09:58:34.941Z,2110.00
2023-04-27T09:59:35.011Z,2076.00
2023-04-27T10:00:34.949Z,2113.00
2023-04-27T10:01:37.281Z,2162.00
2023-04-27T10:02:46.179Z,2164.00
2023-04-27T10:03:36.183Z,2166.00
2023-04-27T10:04:35.163Z,2183.00
2023-04-27T10:05:35.050Z,2203.00
2023-04-27T10:06:35.053Z,2287.00
2023-04-27T10:07:35.000Z,2449.00
2023-04-27T10:08:34.996Z,2582.00
2023-04-27T10:09:34.990Z,2609.00
2023-04-27T10:10:34.969Z,2688.00
2023-04-27T10:11:34.958Z,2728.00
2023-04-27T10:12:34.968Z,2741.00
2023-04-27T10:13:34.933Z,2689.00
2023-04-27T10:14:34.931Z,2631.00
2023-04-27T10:15:34.907Z,2654.00
2023-04-27T10:16:35.059Z,2673.00
2023-04-27T10:17:34.988Z,2741.00
2023-04-27T10:18:34.989Z,2907.00
2023-04-27T10:19:35.023Z,3015.00
2023-04-27T10:20:35.094Z,3048.00
2023-04-27T10:21:35.098Z,3111.00
2023-04-27T10:22:36.045Z,3169.00
2023-04-27T10:23:35.194Z,3221.00
2023-04-27T10:24:35.296Z,3275.00
2023-04-27T10:25:35.308Z,3329.00
2023-04-27T10:26:37.294Z,3376.00
2023-04-27T10:27:35.336Z,3422.00
2023-04-27T10:28:35.334Z,3476.00
2023-04-27T10:29:35.323Z,3532.00
2023-04-27T10:30:35.321Z,3534.00
2023-04-27T10:31:35.313Z,3547.00
2023-04-27T10:32:35.286Z,3579.00
2023-04-27T10:33:35.245Z,3649.00
2023-04-27T10:34:35.323Z,3746.00
2023-04-27T10:35:35.272Z,3776.00
2023-04-27T10:36:35.286Z,3831.00
2023-04-27T10:37:35.163Z,3990.00
2023-04-27T10:38:35.167Z,4062.00
2023-04-27T10:39:47.039Z,4078.00
2023-04-27T10:40:36.128Z,4080.00
2023-04-27T10:41:35.116Z,4080.00
2023-04-27T10:42:35.106Z,4083.00
2023-04-27T10:43:35.073Z,4094.00
2023-04-27T10:44:35.046Z,4117.00
2023-04-27T10:45:34.996Z,4153.00
2023-04-27T10:46:35.092Z,4171.00
2023-04-27T10:47:35.040Z,4191.00
2023-04-27T10:48:34.935Z,4224.00
2023-04-27T10:49:34.924Z,4249.00
2023-04-27T10:50:34.925Z,4254.00
2023-04-27T10:51:34.901Z,4283.00
2023-04-27T10:52:34.883Z,4291.00
2023-04-27T10:53:34.847Z,4312.00
2023-04-27T10:54:34.810Z,4338.00
2023-04-27T10:55:34.809Z,4378.00
2023-04-27T10:56:34.780Z,4416.00
2023-04-27T10:57:34.750Z,4427.00
2023-04-27T10:58:45.261Z,4465.00
2023-04-27T10:59:35.705Z,4467.00
2023-04-27T11:00:34.685Z,4473.00
2023-04-27T11:01:34.754Z,4502.00
2023-04-27T11:02:34.703Z,4553.00
2023-04-27T11:03:34.745Z,4597.00
2023-04-27T11:04:34.605Z,4470.00
2023-04-27T11:05:34.669Z,4470.00
2023-04-27T11:06:34.569Z,4484.00
2023-04-27T11:07:34.541Z,4511.00
2023-04-27T11:08:34.486Z,4550.00
2023-04-27T11:09:34.481Z,4620.00
2023-04-27T11:10:34.612Z,4628.00
2023-04-27T11:11:34.485Z,4632.00
2023-04-27T11:12:34.468Z,4638.00
2023-04-27T11:13:34.457Z,4639.00
2023-04-27T11:14:35.240Z,4635.00
2023-04-27T11:15:34.378Z,4651.00
2023-04-27T11:16:34.436Z,4657.00
2023-04-27T11:17:34.398Z,4660.00
2023-04-27T11:18:34.352Z,4673.00
2023-04-27T11:19:34.294Z,4677.00
2023-04-27T11:20:34.271Z,4678.00
2023-04-27T11:21:34.269Z,4683.00
2023-04-27T11:22:34.241Z,4691.00
2023-04-27T11:23:34.260Z,4713.00
2023-04-27T11:24:34.204Z,4971.00
2023-04-27T11:25:34.188Z,4967.00
2023-04-27T11:26:34.194Z,4922.00
2023-04-27T11:27:34.139Z,4969.00
2023-04-27T11:28:34.207Z,5061.00
2023-04-27T11:29:34.665Z,5077.00
2023-04-27T11:30:34.073Z,4860.00
2023-04-27T11:31:34.070Z,4878.00
2023-04-27T11:32:34.060Z,4849.00
2023-04-27T11:33:35.840Z,4711.00
2023-04-27T11:34:33.994Z,4623.00
2023-04-27T11:35:33.960Z,4540.00
2023-04-27T11:36:33.938Z,4463.00
2023-04-27T11:37:34.038Z,4404.00
2023-04-27T11:38:34.012Z,4355.00
2023-04-27T11:39:33.954Z,4314.00
2023-04-27T11:40:33.993Z,4273.00
2023-04-27T11:41:34.025Z,4242.00
2023-04-27T11:42:34.036Z,4217.00
2023-04-27T11:43:34.095Z,4170.00
2023-04-27T11:44:34.097Z,4141.00
2023-04-27T11:45:34.206Z,4104.00
2023-04-27T11:46:34.198Z,4091.00
2023-04-27T11:47:34.207Z,4063.00
2023-04-27T11:48:34.208Z,4051.00
2023-04-27T11:49:34.245Z,4029.00
2023-04-27T11:50:34.278Z,3991.00
2023-04-27T11:51:34.310Z,3975.00
2023-04-27T11:52:34.360Z,3955.00
2023-04-27T11:53:34.390Z,3925.00
2023-04-27T11:54:34.420Z,3899.00
2023-04-27T11:55:34.456Z,3892.00
2023-04-27T11:56:34.528Z,3864.00
2023-04-27T11:57:34.556Z,3827.00
2023-04-27T11:58:34.592Z,3837.00
2023-04-27T11:59:34.632Z,3789.00
2023-04-27T12:00:34.685Z,3796.00
2023-04-27T12:01:38.088Z,3778.00
2023-04-27T12:02:34.836Z,3785.00
2023-04-27T12:03:35.457Z,3767.00
2023-04-27T12:04:34.853Z,3755.00
2023-04-27T12:05:34.722Z,3719.00
2023-04-27T12:06:34.696Z,3708.00
2023-04-27T12:07:34.645Z,3705.00
2023-04-27T12:08:34.582Z,3694.00
2023-04-27T12:09:34.548Z,3678.00
2023-04-27T12:10:34.533Z,3661.00
2023-04-27T12:11:34.521Z,3647.00
2023-04-27T12:12:34.488Z,3630.00
2023-04-27T12:13:34.483Z,3607.00
2023-04-27T12:14:34.464Z,3600.00
2023-04-27T12:15:34.461Z,3592.00
2023-04-27T12:16:34.464Z,3594.00
2023-04-27T12:17:34.449Z,3576.00
2023-04-27T12:18:34.383Z,3560.00